sensor_id;sensor_type;location;lat;lon;timestamp;pressure;altitude;pressure_sealevel;temperature;humidity
36254;BME280;22291;52.250;21.228;2022-12-26T21:23:56;99898.15;;;7.69;100.00
36254;BME280;22291;52.250;21.228;2022-12-26T21:26:25;99889.09;;;7.64;100.00
36254;BME280;22291;52.250;21.228;2022-12-26T21:28:57;99891.45;;;7.66;100.00
36254;BME280;22291;52.250;21.228;2022-12-26T21:31:27;99885.77;;;7.67;100.00
36254;BME280;22291;52.250;21.228;2022-12-26T21:33:57;99887.88;;;7.71;100.00
36254;BME280;22291;52.250;21.228;2022-12-26T21:36:25;99877.59;;;7.73;100.00
36254;BME280;22291;52.250;21.228;2022-12-26T21:38:54;99874.61;;;7.74;100.00
36254;BME280;22291;52.250;21.228;2022-12-26T21:41:21;99875.36;;;7.77;100.00
36254;BME280;22291;52.250;21.228;2022-12-26T21:43:48;99880.71;;;7.80;100.00
36254;BME280;22291;52.250;21.228;2022-12-26T21:46:17;99888.72;;;7.82;100.00
36254;BME280;22291;52.250;21.228;2022-12-26T21:48:45;99876.60;;;7.82;100.00
36254;BME280;22291;52.250;21.228;2022-12-26T21:51:13;99879.78;;;7.84;100.00
36254;BME280;22291;52.250;21.228;2022-12-26T21:53:43;99875.45;;;7.86;100.00
36254;BME280;22291;52.250;21.228;2022-12-26T21:56:11;99873.31;;;7.85;100.00
36254;BME280;22291;52.250;21.228;2022-12-26T21:58:39;99875.22;;;7.85;100.00
36254;BME280;22291;52.250;21.228;2022-12-26T22:01:25;99873.31;;;7.85;100.00
36254;BME280;22291;52.250;21.228;2022-12-26T22:03:53;99883.53;;;7.86;100.00
36254;BME280;22291;52.250;21.228;2022-12-26T22:06:39;99876.23;;;7.86;100.00
36254;BME280;22291;52.250;21.228;2022-12-26T22:09:07;99875.11;;;7.90;100.00
36254;BME280;22291;52.250;21.228;2022-12-26T22:11:35;99879.16;;;7.90;100.00
36254;BME280;22291;52.250;21.228;2022-12-26T22:14:21;99875.34;;;7.91;100.00
36254;BME280;22291;52.250;21.228;2022-12-26T22:16:52;99877.14;;;7.96;100.00
36254;BME280;22291;52.250;21.228;2022-12-26T22:19:21;99872.80;;;7.97;100.00
36254;BME280;22291;52.250;21.228;2022-12-26T22:21:53;99878.19;;;7.97;100.00
36254;BME280;22291;52.250;21.228;2022-12-26T22:24:21;99886.87;;;7.94;100.00
36254;BME280;22291;52.250;21.228;2022-12-26T22:26:48;99888.28;;;7.92;100.00
36254;BME280;22291;52.250;21.228;2022-12-26T22:29:14;99881.88;;;7.88;100.00
36254;BME280;22291;52.250;21.228;2022-12-26T22:31:41;99885.66;;;7.86;100.00
36254;BME280;22291;52.250;21.228;2022-12-26T22:34:09;99879.30;;;7.82;100.00
36254;BME280;22291;52.250;21.228;2022-12-26T22:36:37;99880.71;;;7.80;100.00
36254;BME280;22291;52.250;21.228;2022-12-26T22:39:06;99874.61;;;7.74;100.00
36254;BME280;22291;52.250;21.228;2022-12-26T22:41:33;99869.03;;;7.71;100.00
36254;BME280;22291;52.250;21.228;2022-12-26T22:44:00;99875.76;;;7.71;100.00
36254;BME280;22291;52.250;21.228;2022-12-26T22:46:27;99869.92;;;7.66;100.00
36254;BME280;22291;52.250;21.228;2022-12-26T22:48:53;99861.84;;;7.66;100.00
36254;BME280;22291;52.250;21.228;2022-12-26T22:51:22;99859.77;;;7.63;100.00
36254;BME280;22291;52.250;21.228;2022-12-26T22:53:54;99863.29;;;7.61;100.00
36254;BME280;22291;52.250;21.228;2022-12-26T22:56:22;99859.61;;;7.57;100.00
36254;BME280;22291;52.250;21.228;2022-12-26T22:58:53;99853.48;;;7.54;100.00
36254;BME280;22291;52.250;21.228;2022-12-26T23:01:24;99864.34;;;7.48;100.00
36254;BME280;22291;52.250;21.228;2022-12-26T23:03:50;99865.75;;;7.46;100.00
36254;BME280;22291;52.250;21.228;2022-12-26T23:06:25;99869.88;;;7.41;100.00
36254;BME280;22291;52.250;21.228;2022-12-26T23:08:56;99882.58;;;7.38;100.00
36254;BME280;22291;52.250;21.228;2022-12-26T23:11:27;99889.86;;;7.37;100.00
36254;BME280;22291;52.250;21.228;2022-12-26T23:13:56;99893.34;;;7.38;100.00
36254;BME280;22291;52.250;21.228;2022-12-26T23:16:51;99890.16;;;7.36;100.00
36254;BME280;22291;52.250;21.228;2022-12-26T23:22:33;99884.22;;;7.36;100.00
36254;BME280;22291;52.250;21.228;2022-12-26T23:25:01;99888.26;;;7.36;100.00
36254;BME280;22291;52.250;21.228;2022-12-26T23:27:27;99886.65;;;7.35;100.00
36254;BME280;22291;52.250;21.228;2022-12-26T23:30:13;99877.49;;;7.36;100.00
36254;BME280;22291;52.250;21.228;2022-12-26T23:32:50;99868.37;;;7.35;100.00
36254;BME280;22291;52.250;21.228;2022-12-26T23:35:20;99863.28;;;7.33;100.00
36254;BME280;22291;52.250;21.228;2022-12-26T23:37:48;99862.00;;;7.31;100.00
36254;BME280;22291;52.250;21.228;2022-12-26T23:40:16;99871.95;;;7.30;100.00
36254;BME280;22291;52.250;21.228;2022-12-26T23:42:44;99872.30;;;7.26;100.00
36254;BME280;22291;52.250;21.228;2022-12-26T23:45:13;99865.28;;;7.27;100.00
36254;BME280;22291;52.250;21.228;2022-12-26T23:47:41;99858.29;;;7.26;100.00
36254;BME280;22291;52.250;21.228;2022-12-26T23:50:10;99864.46;;;7.27;100.00
36254;BME280;22291;52.250;21.228;2022-12-26T23:52:38;99863.12;;;7.27;100.00
36254;BME280;22291;52.250;21.228;2022-12-26T23:57:55;99851.56;;;7.26;100.00
